Dayville, OR (97825)

6:10 PM PDT on March 31, 2015 (GMT -0700)
School | | Change Station
CLOSE
Current Station
Personal Weather Station
Location: Dayville, OR
Elevation: 2448 ft
Nearby Weather Stations

Elev 2448 ft 44.47 °N, 119.54 °W | Updated 2 seconds ago

Mostly Cloudy
Mostly Cloudy
44.5 °F
Feels Like 44 °F
N
3.0
Wind Variable Wind from West
Gusts 7.0 mph

Today
High -- | Low -- °F
--% Chance of Precip.
Yesterday
High -- | Low -- °F
Precip. -- in
6:41 AM 7:24 PM
Waxing Gibbous, 90% visible
Pressure 30.08 in
Visibility 10.0 miles
Clouds Scattered Clouds 2200 ft
Scattered Clouds 2800 ft
Mostly Cloudy 5000 ft
Windchill 44 °F
Dew Point 34 °F
Humidity 66%
Rainfall 0.05 in
Snow Depth Not available.
UV 1 out of 12
Pollen 8.10 out of 12
Air Quality Not available.
Flu Activity Not available.
METAR KGCD 010035Z AUTO 25016G25KT 10SM SCT022 SCT028 BKN050 05/01 A3008 RMK AO2 T00470009

More Conditions Fewer Conditions

Pressure 30.08 in
Visibility 10.0 miles
Clouds Scattered Clouds 2200 ft
Scattered Clouds 2800 ft
Mostly Cloudy 5000 ft
Windchill 44 °F
Dew Point 34 °F
Humidity 66%
Rainfall 0.05 in
Snow Depth Not available.
UV 1 out of 12
Pollen 8.10 out of 12
Air Quality Not available.
Flu Activity Not available.
METAR KGCD 010035Z AUTO 25016G25KT 10SM SCT022 SCT028 BKN050 05/01 A3008 RMK AO2 T00470009

More Conditions Fewer Conditions

10-Day Weather Forecast

Almanac

Astronomy

Mar. 31, 2015 Rise Set
Actual Time
Civil Twilight
Nautical Twilight
Astronomical Twilight
Moon
Length of Visible Light
Length of Day
Tomorrow will be .
, % of the Moon is Illuminated

Today's Extremes

State Highs State Lows

Community

WunderPhotos

Upload Photos

1,809,896 photos uploaded!

WunderBlogs® & News

Nearby

Air Quality

  Air Quality AQ Index Pollutant
Not available.

Snow Depth

Station Depth Elevation

Earthquake Activity

City Distance Mag. Time & Date
Minimum magnitude displayed is 2.5.

Coastal Water Temperatures

Place Temperature

Stations

Nearby Weather Stations

Station Location Temp. Windchill Dew Point Humidity Wind Precip. Elev Updated Type